sensor_id;sensor_type;location;lat;lon;timestamp;P1;durP1;ratioP1;P2;durP2;ratioP2
34134;SDS011;20410;55.578;12.968;2023-08-30T00:01:48;7.53;;;3.47;;
34134;SDS011;20410;55.578;12.968;2023-08-30T00:04:13;6.13;;;3.60;;
34134;SDS011;20410;55.578;12.968;2023-08-30T00:06:39;5.97;;;3.40;;
34134;SDS011;20410;55.578;12.968;2023-08-30T00:09:04;5.43;;;3.10;;
34134;SDS011;20410;55.578;12.968;2023-08-30T00:11:30;4.75;;;3.00;;
34134;SDS011;20410;55.578;12.968;2023-08-30T00:14:03;4.20;;;2.67;;
34134;SDS011;20410;55.578;12.968;2023-08-30T00:16:33;6.43;;;3.10;;
34134;SDS011;20410;55.578;12.968;2023-08-30T00:18:59;4.38;;;2.55;;
34134;SDS011;20410;55.578;12.968;2023-08-30T00:21:25;5.03;;;2.70;;
34134;SDS011;20410;55.578;12.968;2023-08-30T00:23:52;6.28;;;2.50;;
34134;SDS011;20410;55.578;12.968;2023-08-30T00:26:18;5.20;;;3.13;;
34134;SDS011;20410;55.578;12.968;2023-08-30T00:28:43;5.10;;;2.50;;
34134;SDS011;20410;55.578;12.968;2023-08-30T00:31:09;4.90;;;3.00;;
34134;SDS011;20410;55.578;12.968;2023-08-30T00:33:34;3.92;;;2.33;;
34134;SDS011;20410;55.578;12.968;2023-08-30T00:36:00;4.72;;;2.78;;
34134;SDS011;20410;55.578;12.968;2023-08-30T00:38:26;5.35;;;2.78;;
34134;SDS011;20410;55.578;12.968;2023-08-30T00:40:52;5.28;;;3.22;;
34134;SDS011;20410;55.578;12.968;2023-08-30T00:43:19;5.03;;;2.80;;
34134;SDS011;20410;55.578;12.968;2023-08-30T00:45:45;3.40;;;2.50;;
34134;SDS011;20410;55.578;12.968;2023-08-30T00:48:12;3.70;;;2.50;;
34134;SDS011;20410;55.578;12.968;2023-08-30T00:50:40;5.32;;;2.60;;
34134;SDS011;20410;55.578;12.968;2023-08-30T00:53:06;3.25;;;2.63;;
34134;SDS011;20410;55.578;12.968;2023-08-30T00:55:33;4.68;;;2.80;;
34134;SDS011;20410;55.578;12.968;2023-08-30T00:58:00;3.65;;;2.53;;
34134;SDS011;20410;55.578;12.968;2023-08-30T01:00:27;4.28;;;3.00;;
34134;SDS011;20410;55.578;12.968;2023-08-30T01:02:56;5.18;;;2.58;;
34134;SDS011;20410;55.578;12.968;2023-08-30T01:05:22;3.40;;;2.75;;
34134;SDS011;20410;55.578;12.968;2023-08-30T01:07:49;4.60;;;2.53;;
34134;SDS011;20410;55.578;12.968;2023-08-30T01:10:15;5.10;;;2.70;;
34134;SDS011;20410;55.578;12.968;2023-08-30T01:12:45;4.80;;;3.00;;
34134;SDS011;20410;55.578;12.968;2023-08-30T01:15:20;4.13;;;2.72;;
34134;SDS011;20410;55.578;12.968;2023-08-30T01:17:48;6.75;;;2.67;;
34134;SDS011;20410;55.578;12.968;2023-08-30T01:20:15;5.57;;;2.97;;
34134;SDS011;20410;55.578;12.968;2023-08-30T01:23:01;4.47;;;2.58;;
34134;SDS011;20410;55.578;12.968;2023-08-30T01:28:28;3.38;;;2.55;;
34134;SDS011;20410;55.578;12.968;2023-08-30T01:30:56;7.00;;;2.70;;
34134;SDS011;20410;55.578;12.968;2023-08-30T01:33:24;4.43;;;3.00;;
34134;SDS011;20410;55.578;12.968;2023-08-30T01:35:52;6.72;;;3.15;;
34134;SDS011;20410;55.578;12.968;2023-08-30T01:38:20;4.10;;;2.78;;
34134;SDS011;20410;55.578;12.968;2023-08-30T01:40:46;6.53;;;2.97;;
34134;SDS011;20410;55.578;12.968;2023-08-30T01:43:13;5.60;;;3.00;;
34134;SDS011;20410;55.578;12.968;2023-08-30T01:45:41;3.88;;;2.72;;
34134;SDS011;20410;55.578;12.968;2023-08-30T01:48:09;6.82;;;3.20;;
34134;SDS011;20410;55.578;12.968;2023-08-30T01:50:38;4.82;;;2.50;;
34134;SDS011;20410;55.578;12.968;2023-08-30T01:53:05;6.63;;;3.17;;
34134;SDS011;20410;55.578;12.968;2023-08-30T01:55:32;4.22;;;3.00;;
34134;SDS011;20410;55.578;12.968;2023-08-30T01:57:59;4.88;;;3.28;;
34134;SDS011;20410;55.578;12.968;2023-08-30T02:00:24;4.50;;;2.88;;
34134;SDS011;20410;55.578;12.968;2023-08-30T02:02:50;4.78;;;3.03;;
34134;SDS011;20410;55.578;12.968;2023-08-30T02:05:15;8.18;;;3.42;;
34134;SDS011;20410;55.578;12.968;2023-08-30T02:10:31;6.03;;;2.77;;
34134;SDS011;20410;55.578;12.968;2023-08-30T02:13:05;4.60;;;2.80;;
34134;SDS011;20410;55.578;12.968;2023-08-30T02:15:31;4.13;;;2.63;;
34134;SDS011;20410;55.578;12.968;2023-08-30T02:18:00;4.25;;;3.03;;
34134;SDS011;20410;55.578;12.968;2023-08-30T02:20:28;4.65;;;2.80;;
34134;SDS011;20410;55.578;12.968;2023-08-30T02:22:57;3.30;;;2.70;;
34134;SDS011;20410;55.578;12.968;2023-08-30T02:25:23;3.70;;;2.83;;
34134;SDS011;20410;55.578;12.968;2023-08-30T02:27:49;4.35;;;3.05;;
34134;SDS011;20410;55.578;12.968;2023-08-30T02:30:14;5.43;;;2.90;;
34134;SDS011;20410;55.578;12.968;2023-08-30T02:32:40;5.35;;;2.65;;
34134;SDS011;20410;55.578;12.968;2023-08-30T02:35:06;5.63;;;2.97;;
34134;SDS011;20410;55.578;12.968;2023-08-30T02:37:31;4.05;;;2.65;;
34134;SDS011;20410;55.578;12.968;2023-08-30T02:39:57;4.90;;;2.88;;
34134;SDS011;20410;55.578;12.968;2023-08-30T02:42:22;5.47;;;3.25;;
34134;SDS011;20410;55.578;12.968;2023-08-30T02:44:48;6.00;;;3.07;;
34134;SDS011;20410;55.578;12.968;2023-08-30T02:47:14;3.60;;;2.40;;
34134;SDS011;20410;55.578;12.968;2023-08-30T02:49:39;3.53;;;3.10;;
34134;SDS011;20410;55.578;12.968;2023-08-30T02:52:05;4.67;;;2.77;;
34134;SDS011;20410;55.578;12.968;2023-08-30T02:54:30;6.97;;;2.80;;
34134;SDS011;20410;55.578;12.968;2023-08-30T02:56:56;6.67;;;3.10;;
34134;SDS011;20410;55.578;12.968;2023-08-30T02:59:21;4.53;;;2.90;;
34134;SDS011;20410;55.578;12.968;2023-08-30T03:01:47;4.37;;;2.90;;
34134;SDS011;20410;55.578;12.968;2023-08-30T03:04:12;4.80;;;3.37;;
34134;SDS011;20410;55.578;12.968;2023-08-30T03:06:38;7.43;;;3.47;;
34134;SDS011;20410;55.578;12.968;2023-08-30T03:09:03;8.50;;;3.57;;
34134;SDS011;20410;55.578;12.968;2023-08-30T03:11:31;7.57;;;3.50;;
34134;SDS011;20410;55.578;12.968;2023-08-30T03:13:57;5.77;;;2.97;;
34134;SDS011;20410;55.578;12.968;2023-08-30T03:16:22;8.30;;;3.73;;
34134;SDS011;20410;55.578;12.968;2023-08-30T03:18:48;4.53;;;2.80;;
34134;SDS011;20410;55.578;12.968;2023-08-30T03:21:14;6.57;;;3.20;;
34134;SDS011;20410;55.578;12.968;2023-08-30T03:23:40;7.17;;;3.20;;
34134;SDS011;20410;55.578;12.968;2023-08-30T03:26:09;3.43;;;2.60;;
34134;SDS011;20410;55.578;12.968;2023-08-30T03:28:36;3.60;;;2.80;;
34134;SDS011;20410;55.578;12.968;2023-08-30T03:31:02;4.80;;;2.90;;
34134;SDS011;20410;55.578;12.968;2023-08-30T03:33:36;5.07;;;3.33;;
34134;SDS011;20410;55.578;12.968;2023-08-30T03:36:01;5.20;;;3.80;;
34134;SDS011;20410;55.578;12.968;2023-08-30T03:38:27;4.93;;;3.00;;
34134;SDS011;20410;55.578;12.968;2023-08-30T03:40:53;5.83;;;3.10;;
34134;SDS011;20410;55.578;12.968;2023-08-30T03:43:19;5.13;;;2.90;;
34134;SDS011;20410;55.578;12.968;2023-08-30T03:45:44;6.70;;;3.10;;
34134;SDS011;20410;55.578;12.968;2023-08-30T03:48:11;6.80;;;3.60;;
34134;SDS011;20410;55.578;12.968;2023-08-30T03:50:36;4.17;;;2.90;;
34134;SDS011;20410;55.578;12.968;2023-08-30T03:53:02;7.63;;;3.20;;
34134;SDS011;20410;55.578;12.968;2023-08-30T03:55:28;5.80;;;3.40;;
34134;SDS011;20410;55.578;12.968;2023-08-30T03:57:53;4.97;;;3.40;;
34134;SDS011;20410;55.578;12.968;2023-08-30T04:00:19;4.10;;;2.93;;
34134;SDS011;20410;55.578;12.968;2023-08-30T04:02:44;6.10;;;3.50;;
34134;SDS011;20410;55.578;12.968;2023-08-30T04:05:10;6.63;;;3.47;;
34134;SDS011;20410;55.578;12.968;2023-08-30T04:07:35;6.50;;;3.80;;
34134;SDS011;20410;55.578;12.968;2023-08-30T04:10:01;5.43;;;3.50;;
34134;SDS011;20410;55.578;12.968;2023-08-30T04:12:31;4.13;;;2.80;;
34134;SDS011;20410;55.578;12.968;2023-08-30T04:14:56;3.93;;;3.10;;
34134;SDS011;20410;55.578;12.968;2023-08-30T04:17:22;5.10;;;3.53;;
34134;SDS011;20410;55.578;12.968;2023-08-30T04:19:51;6.17;;;3.60;;
34134;SDS011;20410;55.578;12.968;2023-08-30T04:22:17;4.60;;;3.07;;
34134;SDS011;20410;55.578;12.968;2023-08-30T04:24:43;5.67;;;3.30;;
34134;SDS011;20410;55.578;12.968;2023-08-30T04:27:08;6.67;;;3.20;;
34134;SDS011;20410;55.578;12.968;2023-08-30T04:29:34;3.67;;;2.87;;
34134;SDS011;20410;55.578;12.968;2023-08-30T04:31:59;6.40;;;3.57;;
34134;SDS011;20410;55.578;12.968;2023-08-30T04:34:25;5.43;;;2.93;;
34134;SDS011;20410;55.578;12.968;2023-08-30T04:36:51;6.73;;;3.47;;
34134;SDS011;20410;55.578;12.968;2023-08-30T04:39:17;3.80;;;2.90;;
34134;SDS011;20410;55.578;12.968;2023-08-30T04:41:42;6.30;;;3.10;;
34134;SDS011;20410;55.578;12.968;2023-08-30T04:44:08;4.67;;;2.97;;
34134;SDS011;20410;55.578;12.968;2023-08-30T04:46:34;5.77;;;2.80;;
34134;SDS011;20410;55.578;12.968;2023-08-30T04:48:59;4.43;;;3.10;;
34134;SDS011;20410;55.578;12.968;2023-08-30T04:51:24;4.67;;;3.07;;
34134;SDS011;20410;55.578;12.968;2023-08-30T04:53:50;4.73;;;3.03;;
34134;SDS011;20410;55.578;12.968;2023-08-30T04:56:16;4.00;;;2.70;;
34134;SDS011;20410;55.578;12.968;2023-08-30T04:58:43;4.37;;;3.00;;
34134;SDS011;20410;55.578;12.968;2023-08-30T05:01:08;4.53;;;3.30;;
34134;SDS011;20410;55.578;12.968;2023-08-30T05:03:34;5.07;;;3.00;;
34134;SDS011;20410;55.578;12.968;2023-08-30T05:06:00;8.57;;;3.33;;
34134;SDS011;20410;55.578;12.968;2023-08-30T05:08:25;8.93;;;3.90;;
34134;SDS011;20410;55.578;12.968;2023-08-30T05:10:53;6.60;;;3.60;;
34134;SDS011;20410;55.578;12.968;2023-08-30T05:13:19;4.77;;;3.13;;
34134;SDS011;20410;55.578;12.968;2023-08-30T05:15:45;6.30;;;3.53;;
34134;SDS011;20410;55.578;12.968;2023-08-30T05:18:10;5.33;;;3.43;;
34134;SDS011;20410;55.578;12.968;2023-08-30T05:20:36;6.80;;;3.60;;
34134;SDS011;20410;55.578;12.968;2023-08-30T05:23:02;4.87;;;3.27;;
34134;SDS011;20410;55.578;12.968;2023-08-30T05:25:27;4.30;;;2.80;;
34134;SDS011;20410;55.578;12.968;2023-08-30T05:27:53;4.90;;;2.80;;
34134;SDS011;20410;55.578;12.968;2023-08-30T05:30:19;7.27;;;3.20;;
34134;SDS011;20410;55.578;12.968;2023-08-30T05:32:44;5.03;;;3.40;;
34134;SDS011;20410;55.578;12.968;2023-08-30T05:35:10;4.90;;;3.10;;
34134;SDS011;20410;55.578;12.968;2023-08-30T05:37:36;7.33;;;3.77;;
34134;SDS011;20410;55.578;12.968;2023-08-30T05:40:01;8.87;;;3.70;;
34134;SDS011;20410;55.578;12.968;2023-08-30T05:42:28;5.00;;;3.37;;
34134;SDS011;20410;55.578;12.968;2023-08-30T05:44:53;7.47;;;3.53;;
34134;SDS011;20410;55.578;12.968;2023-08-30T05:47:20;5.03;;;3.30;;
34134;SDS011;20410;55.578;12.968;2023-08-30T05:49:46;5.77;;;3.07;;
34134;SDS011;20410;55.578;12.968;2023-08-30T05:52:12;5.77;;;3.30;;
34134;SDS011;20410;55.578;12.968;2023-08-30T05:54:37;4.90;;;2.90;;
34134;SDS011;20410;55.578;12.968;2023-08-30T05:57:03;4.85;;;3.10;;
34134;SDS011;20410;55.578;12.968;2023-08-30T05:59:29;5.90;;;2.90;;
34134;SDS011;20410;55.578;12.968;2023-08-30T06:01:54;5.37;;;2.67;;
34134;SDS011;20410;55.578;12.968;2023-08-30T06:04:20;4.97;;;2.70;;
34134;SDS011;20410;55.578;12.968;2023-08-30T06:06:45;4.17;;;2.43;;
34134;SDS011;20410;55.578;12.968;2023-08-30T06:09:11;5.90;;;2.93;;
34134;SDS011;20410;55.578;12.968;2023-08-30T06:11:40;2.57;;;2.20;;
34134;SDS011;20410;55.578;12.968;2023-08-30T06:14:05;5.70;;;2.65;;
34134;SDS011;20410;55.578;12.968;2023-08-30T06:16:32;2.95;;;2.20;;
34134;SDS011;20410;55.578;12.968;2023-08-30T06:18:57;4.15;;;2.47;;
34134;SDS011;20410;55.578;12.968;2023-08-30T06:21:24;2.88;;;2.15;;
34134;SDS011;20410;55.578;12.968;2023-08-30T06:23:50;3.92;;;2.25;;
34134;SDS011;20410;55.578;12.968;2023-08-30T06:26:17;2.50;;;2.08;;
34134;SDS011;20410;55.578;12.968;2023-08-30T06:28:43;3.42;;;2.00;;
34134;SDS011;20410;55.578;12.968;2023-08-30T06:31:09;2.65;;;1.75;;
34134;SDS011;20410;55.578;12.968;2023-08-30T06:33:35;1.70;;;1.58;;
34134;SDS011;20410;55.578;12.968;2023-08-30T06:36:01;2.13;;;1.50;;
34134;SDS011;20410;55.578;12.968;2023-08-30T06:38:27;2.47;;;1.30;;
34134;SDS011;20410;55.578;12.968;2023-08-30T06:40:52;2.30;;;1.33;;
34134;SDS011;20410;55.578;12.968;2023-08-30T06:43:18;2.55;;;1.40;;
34134;SDS011;20410;55.578;12.968;2023-08-30T06:45:44;2.00;;;1.55;;
34134;SDS011;20410;55.578;12.968;2023-08-30T06:48:09;1.65;;;1.30;;
34134;SDS011;20410;55.578;12.968;2023-08-30T06:50:35;3.00;;;1.20;;
34134;SDS011;20410;55.578;12.968;2023-08-30T06:53:01;1.48;;;1.38;;
34134;SDS011;20410;55.578;12.968;2023-08-30T06:55:28;2.00;;;1.35;;
34134;SDS011;20410;55.578;12.968;2023-08-30T06:57:53;1.77;;;1.30;;
34134;SDS011;20410;55.578;12.968;2023-08-30T07:00:20;1.95;;;1.50;;
34134;SDS011;20410;55.578;12.968;2023-08-30T07:02:45;1.58;;;1.42;;
34134;SDS011;20410;55.578;12.968;2023-08-30T07:05:11;1.95;;;1.30;;
34134;SDS011;20410;55.578;12.968;2023-08-30T07:07:37;3.95;;;1.80;;
34134;SDS011;20410;55.578;12.968;2023-08-30T07:10:03;2.60;;;1.33;;
34134;SDS011;20410;55.578;12.968;2023-08-30T07:12:29;3.30;;;1.20;;
34134;SDS011;20410;55.578;12.968;2023-08-30T07:14:55;2.78;;;1.50;;
34134;SDS011;20410;55.578;12.968;2023-08-30T07:17:20;2.58;;;1.30;;
34134;SDS011;20410;55.578;12.968;2023-08-30T07:19:46;2.33;;;1.30;;
34134;SDS011;20410;55.578;12.968;2023-08-30T07:22:12;2.53;;;1.50;;
34134;SDS011;20410;55.578;12.968;2023-08-30T07:24:38;1.80;;;1.30;;
34134;SDS011;20410;55.578;12.968;2023-08-30T07:27:03;3.53;;;1.50;;
34134;SDS011;20410;55.578;12.968;2023-08-30T07:29:29;2.05;;;1.33;;
34134;SDS011;20410;55.578;12.968;2023-08-30T07:31:55;1.77;;;1.48;;
34134;SDS011;20410;55.578;12.968;2023-08-30T07:34:21;2.75;;;1.20;;
34134;SDS011;20410;55.578;12.968;2023-08-30T07:36:46;1.85;;;1.20;;
34134;SDS011;20410;55.578;12.968;2023-08-30T07:39:12;2.40;;;1.38;;
34134;SDS011;20410;55.578;12.968;2023-08-30T07:41:38;4.47;;;1.73;;
34134;SDS011;20410;55.578;12.968;2023-08-30T07:44:03;3.53;;;1.60;;
34134;SDS011;20410;55.578;12.968;2023-08-30T07:46:29;2.30;;;1.80;;
34134;SDS011;20410;55.578;12.968;2023-08-30T07:48:54;5.40;;;1.90;;
34134;SDS011;20410;55.578;12.968;2023-08-30T07:51:20;3.42;;;2.00;;
34134;SDS011;20410;55.578;12.968;2023-08-30T07:53:46;2.58;;;1.70;;
34134;SDS011;20410;55.578;12.968;2023-08-30T07:56:12;3.22;;;1.70;;
34134;SDS011;20410;55.578;12.968;2023-08-30T07:58:37;2.97;;;1.80;;
34134;SDS011;20410;55.578;12.968;2023-08-30T08:01:03;2.97;;;1.83;;
34134;SDS011;20410;55.578;12.968;2023-08-30T08:03:28;3.90;;;1.88;;
34134;SDS011;20410;55.578;12.968;2023-08-30T08:05:54;2.53;;;1.70;;
34134;SDS011;20410;55.578;12.968;2023-08-30T08:08:19;3.25;;;1.70;;
34134;SDS011;20410;55.578;12.968;2023-08-30T08:10:46;3.42;;;1.90;;
34134;SDS011;20410;55.578;12.968;2023-08-30T08:13:12;2.72;;;1.42;;
34134;SDS011;20410;55.578;12.968;2023-08-30T08:15:38;3.78;;;1.40;;
34134;SDS011;20410;55.578;12.968;2023-08-30T08:18:03;3.83;;;1.40;;
34134;SDS011;20410;55.578;12.968;2023-08-30T08:20:29;2.78;;;1.45;;
34134;SDS011;20410;55.578;12.968;2023-08-30T08:22:55;1.50;;;1.13;;
34134;SDS011;20410;55.578;12.968;2023-08-30T08:25:21;4.45;;;1.55;;
34134;SDS011;20410;55.578;12.968;2023-08-30T08:27:48;3.15;;;1.35;;
34134;SDS011;20410;55.578;12.968;2023-08-30T08:30:14;2.30;;;1.10;;
34134;SDS011;20410;55.578;12.968;2023-08-30T08:32:40;1.60;;;1.10;;
34134;SDS011;20410;55.578;12.968;2023-08-30T08:35:05;1.95;;;1.10;;
34134;SDS011;20410;55.578;12.968;2023-08-30T08:37:31;1.85;;;1.20;;
34134;SDS011;20410;55.578;12.968;2023-08-30T08:39:57;2.35;;;1.05;;
34134;SDS011;20410;55.578;12.968;2023-08-30T08:42:23;1.52;;;1.08;;
34134;SDS011;20410;55.578;12.968;2023-08-30T08:44:50;1.13;;;1.00;;
34134;SDS011;20410;55.578;12.968;2023-08-30T08:47:18;1.75;;;1.10;;
34134;SDS011;20410;55.578;12.968;2023-08-30T08:49:45;1.48;;;1.08;;
34134;SDS011;20410;55.578;12.968;2023-08-30T08:52:15;2.25;;;1.10;;
34134;SDS011;20410;55.578;12.968;2023-08-30T08:54:41;1.33;;;1.10;;
34134;SDS011;20410;55.578;12.968;2023-08-30T08:57:08;1.20;;;1.00;;
34134;SDS011;20410;55.578;12.968;2023-08-30T08:59:34;1.50;;;1.15;;
34134;SDS011;20410;55.578;12.968;2023-08-30T09:02:00;2.35;;;1.15;;
34134;SDS011;20410;55.578;12.968;2023-08-30T09:04:26;3.10;;;1.52;;
34134;SDS011;20410;55.578;12.968;2023-08-30T09:06:55;2.40;;;1.15;;
34134;SDS011;20410;55.578;12.968;2023-08-30T09:09:23;2.30;;;1.40;;
34134;SDS011;20410;55.578;12.968;2023-08-30T09:11:48;2.60;;;1.23;;
34134;SDS011;20410;55.578;12.968;2023-08-30T09:14:14;3.67;;;1.48;;
34134;SDS011;20410;55.578;12.968;2023-08-30T09:16:40;2.13;;;1.40;;
34134;SDS011;20410;55.578;12.968;2023-08-30T09:19:05;3.35;;;1.50;;
34134;SDS011;20410;55.578;12.968;2023-08-30T09:21:32;4.20;;;2.03;;
34134;SDS011;20410;55.578;12.968;2023-08-30T09:26:31;1.92;;;1.20;;
34134;SDS011;20410;55.578;12.968;2023-08-30T09:29:09;1.85;;;1.40;;
34134;SDS011;20410;55.578;12.968;2023-08-30T09:31:35;2.08;;;1.50;;
34134;SDS011;20410;55.578;12.968;2023-08-30T09:34:02;2.28;;;1.30;;
34134;SDS011;20410;55.578;12.968;2023-08-30T09:36:35;2.55;;;1.48;;
34134;SDS011;20410;55.578;12.968;2023-08-30T09:39:05;2.08;;;1.50;;
34134;SDS011;20410;55.578;12.968;2023-08-30T09:41:32;3.78;;;1.58;;
34134;SDS011;20410;55.578;12.968;2023-08-30T09:43:58;2.33;;;1.50;;
34134;SDS011;20410;55.578;12.968;2023-08-30T09:46:25;1.50;;;1.20;;
34134;SDS011;20410;55.578;12.968;2023-08-30T09:48:51;3.15;;;1.48;;
34134;SDS011;20410;55.578;12.968;2023-08-30T09:51:18;2.55;;;1.70;;
34134;SDS011;20410;55.578;12.968;2023-08-30T09:53:47;2.05;;;1.40;;
34134;SDS011;20410;55.578;12.968;2023-08-30T09:56:19;2.90;;;1.23;;
34134;SDS011;20410;55.578;12.968;2023-08-30T09:58:46;1.70;;;1.40;;
34134;SDS011;20410;55.578;12.968;2023-08-30T10:01:13;3.40;;;1.45;;
34134;SDS011;20410;55.578;12.968;2023-08-30T10:03:39;1.48;;;1.10;;
34134;SDS011;20410;55.578;12.968;2023-08-30T10:06:05;4.35;;;1.35;;
34134;SDS011;20410;55.578;12.968;2023-08-30T10:08:32;2.83;;;1.20;;
34134;SDS011;20410;55.578;12.968;2023-08-30T10:10:59;3.13;;;1.27;;
34134;SDS011;20410;55.578;12.968;2023-08-30T10:13:25;1.65;;;0.90;;
34134;SDS011;20410;55.578;12.968;2023-08-30T10:15:51;1.58;;;1.30;;
34134;SDS011;20410;55.578;12.968;2023-08-30T10:18:23;2.03;;;1.35;;
34134;SDS011;20410;55.578;12.968;2023-08-30T10:20:53;1.98;;;1.30;;
34134;SDS011;20410;55.578;12.968;2023-08-30T10:23:19;3.95;;;1.60;;
34134;SDS011;20410;55.578;12.968;2023-08-30T10:25:46;3.35;;;1.30;;
34134;SDS011;20410;55.578;12.968;2023-08-30T10:28:15;2.75;;;1.20;;
34134;SDS011;20410;55.578;12.968;2023-08-30T10:30:42;2.22;;;1.20;;
34134;SDS011;20410;55.578;12.968;2023-08-30T10:33:12;3.70;;;1.50;;
34134;SDS011;20410;55.578;12.968;2023-08-30T10:35:46;3.38;;;1.40;;
34134;SDS011;20410;55.578;12.968;2023-08-30T10:38:23;3.20;;;1.40;;
34134;SDS011;20410;55.578;12.968;2023-08-30T10:40:51;4.97;;;1.50;;
34134;SDS011;20410;55.578;12.968;2023-08-30T10:43:16;3.70;;;1.48;;
34134;SDS011;20410;55.578;12.968;2023-08-30T10:46:02;1.80;;;1.33;;
34134;SDS011;20410;55.578;12.968;2023-08-30T10:48:35;2.75;;;1.65;;
34134;SDS011;20410;55.578;12.968;2023-08-30T10:51:01;2.20;;;1.40;;
34134;SDS011;20410;55.578;12.968;2023-08-30T10:53:29;2.28;;;1.60;;
34134;SDS011;20410;55.578;12.968;2023-08-30T10:56:10;2.78;;;1.40;;
34134;SDS011;20410;55.578;12.968;2023-08-30T10:58:40;3.00;;;1.65;;
34134;SDS011;20410;55.578;12.968;2023-08-30T11:01:09;3.03;;;1.40;;
34134;SDS011;20410;55.578;12.968;2023-08-30T11:03:37;3.28;;;1.95;;
34134;SDS011;20410;55.578;12.968;2023-08-30T11:06:03;2.53;;;1.30;;
34134;SDS011;20410;55.578;12.968;2023-08-30T11:08:29;2.20;;;1.33;;
34134;SDS011;20410;55.578;12.968;2023-08-30T11:11:04;3.17;;;1.67;;
34134;SDS011;20410;55.578;12.968;2023-08-30T11:13:32;2.65;;;1.50;;
34134;SDS011;20410;55.578;12.968;2023-08-30T11:16:01;3.10;;;1.30;;
34134;SDS011;20410;55.578;12.968;2023-08-30T11:18:28;1.48;;;1.27;;
34134;SDS011;20410;55.578;12.968;2023-08-30T11:21:04;2.25;;;1.20;;
34134;SDS011;20410;55.578;12.968;2023-08-30T11:23:31;1.88;;;1.30;;
34134;SDS011;20410;55.578;12.968;2023-08-30T11:25:56;3.38;;;1.63;;
34134;SDS011;20410;55.578;12.968;2023-08-30T11:28:22;3.92;;;1.40;;
34134;SDS011;20410;55.578;12.968;2023-08-30T11:30:54;1.90;;;1.27;;
34134;SDS011;20410;55.578;12.968;2023-08-30T11:33:23;4.22;;;1.58;;
34134;SDS011;20410;55.578;12.968;2023-08-30T11:35:49;1.77;;;1.15;;
34134;SDS011;20410;55.578;12.968;2023-08-30T11:38:17;3.47;;;1.52;;
34134;SDS011;20410;55.578;12.968;2023-08-30T11:40:43;1.92;;;1.40;;
34134;SDS011;20410;55.578;12.968;2023-08-30T11:43:09;2.92;;;1.20;;
34134;SDS011;20410;55.578;12.968;2023-08-30T11:45:35;1.70;;;1.50;;
34134;SDS011;20410;55.578;12.968;2023-08-30T11:48:00;2.35;;;1.42;;
34134;SDS011;20410;55.578;12.968;2023-08-30T11:50:27;2.83;;;1.30;;
34134;SDS011;20410;55.578;12.968;2023-08-30T11:52:53;1.45;;;1.10;;
34134;SDS011;20410;55.578;12.968;2023-08-30T11:55:22;2.38;;;1.42;;
34134;SDS011;20410;55.578;12.968;2023-08-30T11:57:49;2.35;;;1.30;;
34134;SDS011;20410;55.578;12.968;2023-08-30T12:00:17;4.25;;;2.13;;
34134;SDS011;20410;55.578;12.968;2023-08-30T12:02:44;4.50;;;1.48;;
34134;SDS011;20410;55.578;12.968;2023-08-30T12:05:12;1.90;;;1.25;;
34134;SDS011;20410;55.578;12.968;2023-08-30T12:07:38;1.95;;;1.30;;
34134;SDS011;20410;55.578;12.968;2023-08-30T12:10:09;2.35;;;1.40;;
34134;SDS011;20410;55.578;12.968;2023-08-30T12:12:36;1.48;;;1.30;;
34134;SDS011;20410;55.578;12.968;2023-08-30T12:15:09;2.42;;;1.40;;
34134;SDS011;20410;55.578;12.968;2023-08-30T12:17:35;4.78;;;1.20;;
34134;SDS011;20410;55.578;12.968;2023-08-30T12:20:01;2.10;;;1.30;;
34134;SDS011;20410;55.578;12.968;2023-08-30T12:22:35;3.15;;;1.38;;
34134;SDS011;20410;55.578;12.968;2023-08-30T12:25:02;2.53;;;1.45;;
34134;SDS011;20410;55.578;12.968;2023-08-30T12:27:28;1.67;;;1.40;;
34134;SDS011;20410;55.578;12.968;2023-08-30T12:29:55;2.22;;;1.42;;
34134;SDS011;20410;55.578;12.968;2023-08-30T12:32:20;2.17;;;1.63;;
34134;SDS011;20410;55.578;12.968;2023-08-30T12:34:46;2.30;;;1.30;;
34134;SDS011;20410;55.578;12.968;2023-08-30T12:37:11;2.97;;;1.77;;
34134;SDS011;20410;55.578;12.968;2023-08-30T12:39:37;2.55;;;1.30;;
34134;SDS011;20410;55.578;12.968;2023-08-30T12:42:02;3.20;;;1.40;;
34134;SDS011;20410;55.578;12.968;2023-08-30T12:44:28;1.85;;;1.30;;
34134;SDS011;20410;55.578;12.968;2023-08-30T12:46:54;3.97;;;1.50;;
34134;SDS011;20410;55.578;12.968;2023-08-30T12:49:20;1.92;;;1.40;;
34134;SDS011;20410;55.578;12.968;2023-08-30T12:51:46;3.22;;;1.30;;
34134;SDS011;20410;55.578;12.968;2023-08-30T12:54:11;2.35;;;1.50;;
34134;SDS011;20410;55.578;12.968;2023-08-30T12:56:37;2.95;;;1.45;;
34134;SDS011;20410;55.578;12.968;2023-08-30T12:59:02;1.67;;;1.30;;
34134;SDS011;20410;55.578;12.968;2023-08-30T13:01:28;2.45;;;1.25;;
34134;SDS011;20410;55.578;12.968;2023-08-30T13:03:53;2.83;;;1.73;;
34134;SDS011;20410;55.578;12.968;2023-08-30T13:06:19;4.57;;;1.50;;
34134;SDS011;20410;55.578;12.968;2023-08-30T13:08:45;4.05;;;1.35;;
34134;SDS011;20410;55.578;12.968;2023-08-30T13:11:10;3.17;;;1.40;;
34134;SDS011;20410;55.578;12.968;2023-08-30T13:13:36;2.78;;;1.70;;
34134;SDS011;20410;55.578;12.968;2023-08-30T13:16:01;2.55;;;1.90;;
34134;SDS011;20410;55.578;12.968;2023-08-30T13:18:27;4.03;;;1.95;;
34134;SDS011;20410;55.578;12.968;2023-08-30T13:20:55;2.22;;;1.65;;
34134;SDS011;20410;55.578;12.968;2023-08-30T13:23:21;2.95;;;1.60;;
34134;SDS011;20410;55.578;12.968;2023-08-30T13:25:47;1.75;;;1.63;;
34134;SDS011;20410;55.578;12.968;2023-08-30T13:28:14;3.50;;;2.25;;
34134;SDS011;20410;55.578;12.968;2023-08-30T13:30:45;3.47;;;1.92;;
34134;SDS011;20410;55.578;12.968;2023-08-30T13:33:12;2.88;;;2.13;;
34134;SDS011;20410;55.578;12.968;2023-08-30T13:35:40;1.83;;;1.52;;
34134;SDS011;20410;55.578;12.968;2023-08-30T13:38:06;3.13;;;1.85;;
34134;SDS011;20410;55.578;12.968;2023-08-30T13:40:32;2.78;;;1.65;;
34134;SDS011;20410;55.578;12.968;2023-08-30T13:42:57;3.97;;;1.70;;
34134;SDS011;20410;55.578;12.968;2023-08-30T13:45:23;2.30;;;1.50;;
34134;SDS011;20410;55.578;12.968;2023-08-30T13:47:49;2.63;;;1.30;;
34134;SDS011;20410;55.578;12.968;2023-08-30T13:50:16;1.58;;;1.30;;
34134;SDS011;20410;55.578;12.968;2023-08-30T13:52:42;1.65;;;1.30;;
34134;SDS011;20410;55.578;12.968;2023-08-30T13:55:08;4.40;;;1.02;;
34134;SDS011;20410;55.578;12.968;2023-08-30T13:57:33;1.20;;;1.10;;
34134;SDS011;20410;55.578;12.968;2023-08-30T13:59:59;1.50;;;1.00;;
34134;SDS011;20410;55.578;12.968;2023-08-30T14:02:28;2.35;;;1.00;;
34134;SDS011;20410;55.578;12.968;2023-08-30T14:04:53;1.23;;;1.08;;
34134;SDS011;20410;55.578;12.968;2023-08-30T14:07:19;1.58;;;0.90;;
34134;SDS011;20410;55.578;12.968;2023-08-30T14:09:44;2.03;;;1.10;;
34134;SDS011;20410;55.578;12.968;2023-08-30T14:12:10;2.47;;;1.02;;
34134;SDS011;20410;55.578;12.968;2023-08-30T14:14:35;1.63;;;1.00;;
34134;SDS011;20410;55.578;12.968;2023-08-30T14:17:01;1.48;;;1.00;;
34134;SDS011;20410;55.578;12.968;2023-08-30T14:19:27;1.80;;;1.17;;
34134;SDS011;20410;55.578;12.968;2023-08-30T14:21:52;1.35;;;1.00;;
34134;SDS011;20410;55.578;12.968;2023-08-30T14:24:20;1.98;;;1.17;;
34134;SDS011;20410;55.578;12.968;2023-08-30T14:26:45;0.93;;;0.90;;
34134;SDS011;20410;55.578;12.968;2023-08-30T14:29:11;2.40;;;1.45;;
34134;SDS011;20410;55.578;12.968;2023-08-30T14:31:36;2.33;;;1.00;;
34134;SDS011;20410;55.578;12.968;2023-08-30T14:34:02;1.25;;;1.05;;
34134;SDS011;20410;55.578;12.968;2023-08-30T14:36:28;1.02;;;0.93;;
34134;SDS011;20410;55.578;12.968;2023-08-30T14:38:53;1.77;;;1.23;;